Terminal Aerodrome Forecast
Issued by NWS

Home | Current Version | Previous Version | Graphics & Text | Print | Product List | Glossary On
Versions: 1 2 3 4 5 6 7 8 9 10 11 12 13 14 15 16 17 18 19 20 21 22 23 24 25 26 27 28 29 30 31 32 33 34 35 36 37 38 39
000
FTUS43 KLOT 240853 AAA
TAFORD
TAF AMD
KORD 240853Z 2409/2512 18005KT P6SM FEW150 BKN250
     FM241100 15005KT P6SM VCSH SCT040 BKN100
     FM241400 14010KT P6SM SCT040 BKN080
     FM241900 18011G17KT P6SM VCSH SCT040 BKN080
     FM250300 18012G20KT P6SM -SHRA VCTS BKN040CB OVC080
     FM250600 19013G20KT P6SM -SHRA VCTS BKN040CB OVC080
      TEMPO 2506/2509 -TSRA BKN040CB=

USA.gov is the U.S. government's official web portal to all federal, state and local government web resources and services.